Huvudsida
METAR-TAF:

METAR-TAF

Flygplatser :

Turin, Italien

latitud: 45-05-20N, longitud: 007-36-20E, höjd: 288 m

Aktuellt väderrapport

Denna rapport gjordes för 37 minuter sedan, klockan 10:50 UTC
Vind 4 kt från syd, varierande mellan sydost och väst/sydväst
Temperatur 16°C
Fuktighet 77%
Tryck 1005 hPa
Sikt 10 km eller mer
Brutna moln på en höjd av 1200 ft

METAR: LIMA 201050Z 18004KT 130V240 9999 BKN012 16/12 Q1005

Tid: 13:27 (11:27 UTC)


TAF: saknas

Aktuella väderrapporter och prognoser från 4000 flygplatser (METAR- och TAF-rapporter).

De tillgängliga stationerna syns som gula och röda prickar på kartan.

För musen över prickarna för att se namnen på stationerna.

Klicka sedan för att få väderrapporter och prognoser.

För att ändra kartan: Klicka på de gröna knapparna med ett svart kors på för att zooma in; den gröna knappen med ett streck på för att zooma ut; eller på de gröna pilarna för angränsande kartor.


METAR-TAF: